Terminal Aerodrome Forecast
Issued by NWS Topeka, KS

Home | Current Version | Previous Version | Text Only | Print | Product List | Glossary Off
Versions: 1 2 3 4 5 6 7 8 9 10 11 12 13 14 15 16 17 18 19 20 21 22 23 24 25 26 27 28 29

045
FTUS43 KTOP 191305 AAB
TAFTOP
TAF AMD
KTOP 191305Z 1913/2012 18010KT P6SM BKN015 WS020/22050KT
     FM191400 34012G20KT P6SM OVC010
     FM191700 35011KT P6SM SCT025 BKN035
     FM200200 04009KT P6SM -SHRA OVC020
     FM200600 05008KT 4SM SHRA OVC015 WS020/18030KT
     FM201000 35011KT 5SM SHRA OVC020=

USA.gov is the U.S. government's official web portal to all federal, state and local government web resources and services.